createdAt,value
2023-01-06T00:00:46.859Z,3.60
2023-01-06T00:03:13.503Z,3.63
2023-01-06T00:05:40.105Z,3.05
2023-01-06T00:08:06.755Z,3.63
2023-01-06T00:10:33.366Z,3.13
2023-01-06T00:12:59.983Z,4.00
2023-01-06T00:15:26.685Z,3.55
2023-01-06T00:17:53.324Z,3.15
2023-01-06T00:20:19.908Z,4.90
2023-01-06T00:22:46.480Z,3.60
2023-01-06T00:25:13.136Z,4.25
2023-01-06T00:27:39.998Z,3.08
2023-01-06T00:30:08.222Z,3.60
2023-01-06T00:32:35.459Z,3.35
2023-01-06T00:35:02.449Z,3.70
2023-01-06T00:37:29.128Z,3.55
2023-01-06T00:39:55.726Z,4.25
2023-01-06T00:42:22.786Z,2.92
2023-01-06T00:44:49.624Z,3.58
2023-01-06T00:47:16.804Z,3.45
2023-01-06T00:49:43.524Z,3.95
2023-01-06T00:52:10.943Z,3.15
2023-01-06T00:54:37.703Z,3.75
2023-01-06T00:57:07.114Z,3.80
2023-01-06T00:59:34.222Z,3.75
2023-01-06T01:02:01.219Z,3.60
2023-01-06T01:04:28.064Z,2.95
2023-01-06T01:06:55.438Z,3.80
2023-01-06T01:09:28.052Z,3.25
2023-01-06T01:14:41.923Z,3.45
2023-01-06T01:17:09.642Z,3.15
2023-01-06T01:19:37.806Z,2.95
2023-01-06T01:22:04.865Z,2.97
2023-01-06T01:24:31.855Z,3.20
2023-01-06T01:26:59.120Z,3.40
2023-01-06T01:29:25.946Z,4.10
2023-01-06T01:31:53.053Z,3.85
2023-01-06T01:34:20.296Z,2.90
2023-01-06T01:36:48.598Z,3.47
2023-01-06T01:39:17.677Z,3.30
2023-01-06T01:41:45.304Z,3.10
2023-01-06T01:45:09.157Z,4.18
2023-01-06T01:48:01.187Z,3.97
2023-01-06T01:50:36.557Z,3.53
2023-01-06T01:53:11.021Z,3.25
2023-01-06T01:55:38.244Z,3.88
2023-01-06T01:58:22.745Z,3.22
2023-01-06T02:00:51.005Z,3.60
2023-01-06T02:03:18.872Z,3.80
2023-01-06T02:05:50.942Z,4.03
2023-01-06T02:08:51.698Z,3.95
2023-01-06T02:11:18.382Z,3.35
2023-01-06T02:13:47.615Z,3.55
2023-01-06T02:16:26.945Z,3.50
2023-01-06T02:19:45.981Z,3.63
2023-01-06T02:23:01.845Z,3.65
2023-01-06T02:26:00.810Z,2.90
2023-01-06T02:29:22.826Z,3.83
2023-01-06T02:32:12.024Z,3.70
2023-01-06T02:35:20.681Z,4.68
2023-01-06T02:38:10.558Z,3.42
2023-01-06T02:41:08.760Z,3.55
2023-01-06T02:47:20.708Z,3.60
2023-01-06T02:50:02.683Z,3.38
2023-01-06T02:52:56.281Z,3.20
2023-01-06T02:55:42.355Z,3.08
2023-01-06T02:58:47.788Z,3.90
2023-01-06T03:01:22.627Z,3.60
2023-01-06T03:03:51.686Z,3.65
2023-01-06T03:06:24.150Z,3.22
2023-01-06T03:08:53.501Z,4.00
2023-01-06T03:11:20.611Z,4.47
2023-01-06T03:13:53.424Z,3.15
2023-01-06T03:16:21.043Z,3.05
2023-01-06T03:18:51.215Z,2.90
2023-01-06T03:21:21.819Z,3.53
2023-01-06T03:23:49.133Z,3.53
2023-01-06T03:26:15.800Z,3.80
2023-01-06T03:28:42.409Z,3.72
2023-01-06T03:31:37.066Z,3.28
2023-01-06T03:34:30.683Z,3.05
2023-01-06T03:37:32.673Z,3.20
2023-01-06T03:40:29.699Z,3.33
2023-01-06T03:43:13.798Z,3.42
2023-01-06T03:46:39.120Z,3.22
2023-01-06T03:49:19.105Z,4.25
2023-01-06T03:52:07.486Z,2.50
2023-01-06T03:55:05.744Z,3.55
2023-01-06T03:57:39.447Z,3.90
2023-01-06T04:00:14.855Z,3.50
2023-01-06T04:02:41.986Z,4.22
2023-01-06T04:05:15.693Z,2.75
2023-01-06T04:07:43.552Z,3.25
2023-01-06T04:10:11.922Z,3.30
2023-01-06T04:12:38.873Z,3.53
2023-01-06T04:15:34.697Z,3.88
2023-01-06T04:18:01.393Z,3.03
2023-01-06T04:20:30.302Z,3.35
2023-01-06T04:22:57.680Z,3.53
2023-01-06T04:25:24.743Z,3.20
2023-01-06T04:27:51.749Z,4.65
2023-01-06T04:30:18.460Z,3.35
2023-01-06T04:32:45.074Z,4.22
2023-01-06T04:35:11.793Z,3.85
2023-01-06T04:37:38.476Z,4.38
2023-01-06T04:40:07.628Z,3.50
2023-01-06T04:42:54.400Z,4.40
2023-01-06T04:45:21.370Z,3.72
2023-01-06T04:47:47.974Z,3.50
2023-01-06T04:50:14.855Z,4.32
2023-01-06T04:52:41.467Z,4.00
2023-01-06T04:55:08.910Z,3.40
2023-01-06T04:57:35.771Z,3.55
2023-01-06T05:00:02.598Z,3.53
2023-01-06T05:02:29.227Z,3.78
2023-01-06T05:04:55.884Z,4.18
2023-01-06T05:07:22.454Z,8.73
2023-01-06T05:09:49.119Z,6.90
2023-01-06T05:12:15.753Z,5.63
2023-01-06T05:14:42.420Z,5.00
2023-01-06T05:17:09.009Z,5.32
2023-01-06T05:19:35.665Z,5.35
2023-01-06T05:22:02.310Z,5.00
2023-01-06T05:24:28.888Z,5.45
2023-01-06T05:26:55.476Z,4.30
2023-01-06T05:29:22.070Z,4.13
2023-01-06T05:31:48.785Z,4.90
2023-01-06T05:34:15.421Z,5.25
2023-01-06T05:36:42.012Z,3.60
2023-01-06T05:39:08.696Z,3.67
2023-01-06T05:41:35.287Z,3.67
2023-01-06T05:44:02.004Z,3.65
2023-01-06T05:46:28.681Z,3.72
2023-01-06T05:48:55.319Z,3.75
2023-01-06T05:51:21.977Z,3.13
2023-01-06T05:53:48.954Z,3.58
2023-01-06T05:56:18.591Z,3.63
2023-01-06T05:58:50.398Z,3.45
2023-01-06T06:01:25.584Z,3.72
2023-01-06T06:03:53.567Z,3.42
2023-01-06T06:06:22.845Z,3.90
2023-01-06T06:08:49.719Z,3.72
2023-01-06T06:11:18.922Z,3.90
2023-01-06T06:13:56.403Z,4.63
2023-01-06T06:16:26.101Z,3.63
2023-01-06T06:18:55.223Z,3.25
2023-01-06T06:21:27.359Z,3.38
2023-01-06T06:23:55.512Z,4.78
2023-01-06T06:26:22.840Z,3.78
2023-01-06T06:28:49.935Z,3.35
2023-01-06T06:31:22.970Z,3.50
2023-01-06T06:33:51.557Z,3.67
2023-01-06T06:36:18.654Z,5.43
2023-01-06T06:38:46.988Z,4.32
2023-01-06T06:41:14.063Z,4.85
2023-01-06T06:43:41.125Z,5.22
2023-01-06T06:46:08.149Z,4.30
2023-01-06T06:48:35.148Z,4.25
2023-01-06T06:51:04.747Z,4.03
2023-01-06T06:53:32.895Z,4.50
2023-01-06T06:55:59.721Z,4.50
2023-01-06T06:58:26.693Z,4.00
2023-01-06T07:00:53.502Z,4.70
2023-01-06T07:03:22.888Z,4.43
2023-01-06T07:05:51.914Z,4.22
2023-01-06T07:08:19.031Z,4.45
2023-01-06T07:10:45.760Z,3.72
2023-01-06T07:13:12.623Z,3.80
2023-01-06T07:15:39.390Z,4.90
2023-01-06T07:18:06.662Z,6.00
2023-01-06T07:20:34.928Z,5.57
2023-01-06T07:23:02.126Z,6.93
2023-01-06T07:25:29.328Z,7.43
2023-01-06T07:27:57.775Z,5.70
2023-01-06T07:30:26.305Z,4.95
2023-01-06T07:32:53.292Z,4.45
2023-01-06T07:35:19.979Z,4.47
2023-01-06T07:37:46.564Z,4.35
2023-01-06T07:40:13.762Z,5.15
2023-01-06T07:42:40.478Z,4.53
2023-01-06T07:45:07.951Z,4.85
2023-01-06T07:47:35.037Z,5.47
2023-01-06T07:50:02.120Z,5.20
2023-01-06T07:52:28.772Z,8.95
2023-01-06T07:54:59.376Z,6.97
2023-01-06T07:57:26.880Z,5.15
2023-01-06T07:59:53.665Z,5.55
2023-01-06T08:02:20.834Z,5.28
2023-01-06T08:04:48.008Z,5.53
2023-01-06T08:07:15.645Z,6.13
2023-01-06T08:09:42.370Z,6.63
2023-01-06T08:12:08.962Z,6.53
2023-01-06T08:14:35.568Z,6.28
2023-01-06T08:17:02.238Z,7.68
2023-01-06T08:19:29.006Z,8.45
2023-01-06T08:21:55.640Z,6.20
2023-01-06T08:24:22.253Z,6.07
2023-01-06T08:26:48.852Z,10.25
2023-01-06T08:29:15.528Z,94.18
2023-01-06T08:31:42.368Z,31.33
2023-01-06T08:34:08.976Z,31.10
2023-01-06T08:36:35.619Z,19.67
2023-01-06T08:39:02.220Z,17.67
2023-01-06T08:41:28.799Z,7.43
2023-01-06T08:43:55.647Z,8.55
2023-01-06T08:46:22.390Z,7.07
2023-01-06T08:48:49.042Z,8.13
2023-01-06T08:51:21.117Z,8.25
2023-01-06T08:53:47.846Z,7.05
2023-01-06T08:56:16.962Z,7.05
2023-01-06T08:58:43.856Z,7.90
2023-01-06T09:01:19.256Z,7.35
2023-01-06T09:03:45.960Z,7.60
2023-01-06T09:06:12.938Z,6.88
2023-01-06T09:08:39.531Z,6.38
2023-01-06T09:11:08.202Z,10.30
2023-01-06T09:13:35.714Z,8.15
2023-01-06T09:16:06.446Z,9.88
2023-01-06T09:18:33.167Z,8.68
2023-01-06T09:21:00.047Z,9.07
2023-01-06T09:23:26.947Z,8.27
2023-01-06T09:25:55.461Z,9.25
2023-01-06T09:28:22.815Z,8.35
2023-01-06T09:30:49.516Z,11.43
2023-01-06T09:33:16.779Z,13.65
2023-01-06T09:35:44.663Z,13.95
2023-01-06T09:38:12.408Z,12.65
2023-01-06T09:41:20.639Z,10.20
2023-01-06T09:44:17.780Z,9.35
2023-01-06T09:46:48.883Z,8.43
2023-01-06T09:49:52.094Z,8.82
2023-01-06T09:55:43.024Z,11.57
2023-01-06T09:58:23.949Z,10.80
2023-01-06T10:00:55.827Z,9.48
2023-01-06T10:03:25.120Z,10.23
2023-01-06T10:06:32.179Z,8.77
2023-01-06T10:09:41.130Z,8.35
2023-01-06T10:12:38.601Z,7.85
2023-01-06T10:15:50.468Z,6.72
2023-01-06T10:18:32.904Z,7.47
2023-01-06T10:45:41.376Z,9.85
2023-01-06T10:48:12.222Z,11.75
2023-01-06T10:50:39.033Z,12.68
2023-01-06T10:53:05.763Z,11.15
2023-01-06T10:56:12.294Z,9.88
2023-01-06T10:58:53.938Z,9.30
2023-01-06T11:01:29.076Z,8.90
2023-01-06T11:04:07.916Z,8.50
2023-01-06T11:06:35.401Z,8.90
2023-01-06T11:09:22.290Z,7.95
2023-01-06T11:11:50.040Z,7.18
2023-01-06T11:14:19.242Z,8.68
2023-01-06T11:16:55.136Z,8.07
2023-01-06T11:19:41.907Z,7.50
2023-01-06T11:22:35.743Z,8.00
2023-01-06T11:25:04.630Z,6.50
2023-01-06T11:27:31.210Z,6.22
2023-01-06T11:29:57.821Z,7.07
2023-01-06T11:32:29.678Z,6.60
2023-01-06T11:35:02.752Z,6.65
2023-01-06T11:37:38.906Z,6.53
2023-01-06T11:40:21.314Z,6.55
2023-01-06T11:42:52.027Z,7.55
2023-01-06T11:45:37.561Z,7.70
2023-01-06T11:48:20.381Z,6.70
2023-01-06T11:50:59.905Z,7.28
2023-01-06T11:53:27.585Z,7.72
2023-01-06T11:55:57.105Z,7.63
2023-01-06T11:58:53.683Z,7.82
2023-01-06T12:01:33.226Z,8.13
2023-01-06T12:04:24.428Z,6.45
2023-01-06T12:06:57.338Z,7.38
2023-01-06T12:09:35.088Z,7.60
2023-01-06T12:12:07.732Z,8.00
2023-01-06T12:14:37.020Z,8.60
2023-01-06T12:17:15.865Z,7.13
2023-01-06T12:20:00.183Z,8.32
2023-01-06T12:22:39.755Z,8.43
2023-01-06T12:25:14.134Z,9.27
2023-01-06T12:28:04.717Z,9.82
2023-01-06T12:30:37.609Z,9.60
2023-01-06T12:33:13.663Z,7.85
2023-01-06T12:35:43.076Z,8.63
2023-01-06T12:38:39.199Z,9.65
2023-01-06T12:41:14.017Z,11.02
2023-01-06T12:43:48.784Z,9.07
2023-01-06T12:46:21.664Z,9.02
2023-01-06T12:48:58.033Z,9.43
2023-01-06T12:51:36.350Z,10.50
2023-01-06T12:54:29.445Z,10.73
2023-01-06T12:57:20.072Z,12.77
2023-01-06T13:00:32.198Z,11.90
2023-01-06T13:03:14.261Z,11.57
2023-01-06T13:06:13.499Z,11.27
2023-01-06T13:09:12.151Z,9.95
2023-01-06T13:12:28.183Z,10.10
2023-01-06T13:15:20.220Z,8.93
2023-01-06T13:18:04.805Z,9.43
2023-01-06T13:20:38.994Z,9.93
2023-01-06T13:23:20.855Z,9.77
2023-01-06T13:26:24.814Z,11.17
2023-01-06T13:29:22.260Z,9.55
2023-01-06T13:32:10.728Z,8.73
2023-01-06T13:35:32.889Z,9.00
2023-01-06T13:38:27.710Z,9.65
2023-01-06T13:41:00.636Z,9.45
2023-01-06T13:43:30.698Z,9.57
2023-01-06T13:46:01.848Z,10.27
2023-01-06T13:48:32.489Z,8.73
2023-01-06T13:51:04.600Z,11.70
2023-01-06T13:53:40.989Z,8.88
2023-01-06T13:56:34.556Z,9.50
2023-01-06T13:59:30.538Z,9.77
2023-01-06T14:01:59.683Z,12.40
2023-01-06T14:04:52.801Z,11.27
2023-01-06T14:07:32.532Z,10.82
2023-01-06T14:10:00.476Z,10.57
2023-01-06T14:12:28.817Z,12.07
2023-01-06T14:15:07.938Z,15.13
2023-01-06T14:17:40.965Z,12.70
2023-01-06T14:20:30.422Z,17.13
2023-01-06T14:23:04.093Z,14.23
2023-01-06T14:25:35.055Z,14.68
2023-01-06T14:28:07.075Z,13.48
2023-01-06T14:30:36.776Z,14.57
2023-01-06T14:33:22.625Z,16.25
2023-01-06T14:35:52.162Z,12.98
2023-01-06T14:38:35.126Z,14.07
2023-01-06T14:41:13.726Z,13.93
2023-01-06T14:43:51.412Z,12.10
2023-01-06T14:46:31.275Z,12.55
2023-01-06T14:49:02.243Z,12.15
2023-01-06T14:51:30.269Z,19.30
2023-01-06T14:54:04.064Z,21.58
2023-01-06T14:56:33.201Z,24.52
2023-01-06T14:59:11.242Z,24.48
2023-01-06T15:01:40.778Z,16.83
2023-01-06T15:04:22.266Z,17.95
2023-01-06T15:07:17.966Z,20.05
2023-01-06T15:09:46.617Z,16.70
2023-01-06T15:12:31.263Z,17.50
2023-01-06T15:15:14.382Z,14.80
2023-01-06T15:17:41.256Z,13.27
2023-01-06T15:20:14.001Z,15.50
2023-01-06T15:22:42.641Z,15.80
2023-01-06T15:25:20.788Z,17.15
2023-01-06T15:27:49.260Z,14.43
2023-01-06T15:30:18.742Z,15.25
2023-01-06T15:32:47.614Z,15.55
2023-01-06T15:35:19.565Z,16.95
2023-01-06T15:37:47.484Z,19.98
2023-01-06T15:40:23.358Z,20.58
2023-01-06T15:42:50.060Z,18.20
2023-01-06T15:45:33.372Z,20.75
2023-01-06T15:48:07.677Z,15.63
2023-01-06T15:50:37.804Z,18.02
2023-01-06T15:53:07.908Z,17.83
2023-01-06T15:55:44.268Z,17.40
2023-01-06T15:58:28.520Z,19.23
2023-01-06T16:01:08.081Z,19.00
2023-01-06T16:03:35.778Z,20.35
2023-01-06T16:06:12.125Z,19.38
2023-01-06T16:08:40.413Z,19.05
2023-01-06T16:11:46.483Z,19.27
2023-01-06T16:14:35.692Z,20.02
2023-01-06T16:17:34.208Z,18.80
2023-01-06T16:20:05.643Z,16.98
2023-01-06T16:22:35.716Z,17.92
2023-01-06T16:25:27.766Z,18.52
2023-01-06T16:28:00.490Z,16.87
2023-01-06T16:30:29.068Z,14.18
2023-01-06T16:32:57.311Z,13.55
2023-01-06T16:35:26.061Z,13.13
2023-01-06T16:37:53.355Z,11.57
2023-01-06T16:40:22.134Z,13.02
2023-01-06T16:42:49.693Z,11.50
2023-01-06T16:45:35.986Z,12.30
2023-01-06T16:48:03.439Z,11.23
2023-01-06T16:50:53.225Z,11.57
2023-01-06T16:53:23.684Z,10.85
2023-01-06T16:55:55.689Z,10.70
2023-01-06T16:58:28.810Z,11.38
2023-01-06T17:00:58.460Z,10.43
2023-01-06T17:03:29.353Z,10.48
2023-01-06T17:05:57.051Z,10.00
2023-01-06T17:08:36.918Z,10.30
2023-01-06T17:11:14.066Z,10.05
2023-01-06T17:13:45.982Z,9.60
2023-01-06T17:16:15.841Z,10.77
2023-01-06T17:18:53.665Z,12.98
2023-01-06T17:21:43.361Z,11.63
2023-01-06T17:24:14.367Z,12.68
2023-01-06T17:26:44.448Z,14.38
2023-01-06T17:29:16.070Z,13.15
2023-01-06T17:31:49.026Z,12.55
2023-01-06T17:34:34.156Z,12.48
2023-01-06T17:37:23.019Z,13.25
2023-01-06T17:39:50.171Z,12.65
2023-01-06T17:42:37.192Z,12.60
2023-01-06T17:45:17.113Z,12.27
2023-01-06T17:47:50.395Z,10.57
2023-01-06T17:50:35.640Z,10.48
2023-01-06T17:53:40.837Z,9.73
2023-01-06T17:56:10.316Z,11.35
2023-01-06T17:58:39.723Z,9.88
2023-01-06T18:01:08.788Z,9.10
2023-01-06T18:03:41.818Z,7.72
2023-01-06T18:06:39.123Z,7.93
2023-01-06T18:09:14.414Z,7.55
2023-01-06T18:11:46.471Z,7.47
2023-01-06T18:14:18.116Z,8.52
2023-01-06T18:16:47.148Z,8.53
2023-01-06T18:19:33.993Z,8.50
2023-01-06T18:22:09.878Z,8.48
2023-01-06T18:24:39.164Z,11.60
2023-01-06T18:27:22.499Z,9.45
2023-01-06T18:29:49.961Z,9.02
2023-01-06T18:32:32.022Z,9.40
2023-01-06T18:35:11.758Z,8.70
2023-01-06T18:37:38.431Z,8.75
2023-01-06T18:40:11.195Z,8.00
2023-01-06T18:42:41.755Z,8.07
2023-01-06T18:45:26.854Z,6.95
2023-01-06T18:48:02.265Z,7.00
2023-01-06T18:50:38.672Z,6.75
2023-01-06T18:53:22.382Z,6.95
2023-01-06T18:55:55.201Z,7.00
2023-01-06T18:58:58.963Z,7.15
2023-01-06T19:01:47.353Z,6.68
2023-01-06T19:04:28.867Z,6.95
2023-01-06T19:07:01.135Z,6.97
2023-01-06T19:09:46.381Z,6.68
2023-01-06T19:12:33.418Z,6.07
2023-01-06T19:15:14.748Z,7.47
2023-01-06T19:17:42.226Z,7.38
2023-01-06T19:20:22.631Z,8.90
2023-01-06T19:22:49.874Z,8.25
2023-01-06T19:25:37.625Z,7.95
2023-01-06T19:28:25.569Z,7.47
2023-01-06T19:31:00.145Z,8.90
2023-01-06T19:33:37.638Z,7.60
2023-01-06T19:36:19.444Z,8.93
2023-01-06T19:38:46.093Z,7.70
2023-01-06T19:41:21.516Z,5.65
2023-01-06T19:43:48.366Z,6.57
2023-01-06T19:46:22.816Z,6.13
2023-01-06T19:48:50.784Z,6.20
2023-01-06T19:51:34.381Z,6.35
2023-01-06T19:54:12.027Z,5.97
2023-01-06T19:56:41.681Z,5.88
2023-01-06T19:59:25.614Z,5.45
2023-01-06T20:02:18.088Z,6.22
2023-01-06T20:04:45.724Z,6.25
2023-01-06T20:07:12.313Z,5.35
2023-01-06T20:09:38.955Z,5.07
2023-01-06T20:12:05.690Z,5.28
2023-01-06T20:14:32.258Z,5.03
2023-01-06T20:16:59.548Z,5.00
2023-01-06T20:19:26.319Z,4.68
2023-01-06T20:21:52.916Z,4.88
2023-01-06T20:24:19.524Z,4.72
2023-01-06T20:26:46.135Z,5.55
2023-01-06T20:29:12.739Z,4.15
2023-01-06T20:31:39.388Z,4.68
2023-01-06T20:34:06.013Z,4.40
2023-01-06T20:36:32.668Z,6.68
2023-01-06T20:38:59.605Z,4.75
2023-01-06T20:41:26.229Z,5.07
2023-01-06T20:43:52.864Z,5.25
2023-01-06T20:46:19.605Z,4.40
2023-01-06T20:48:47.802Z,4.80
2023-01-06T20:51:14.735Z,4.63
2023-01-06T20:53:41.388Z,4.50
2023-01-06T20:56:08.221Z,4.55
2023-01-06T20:58:35.665Z,3.72
2023-01-06T21:01:02.685Z,4.45
2023-01-06T21:03:29.350Z,4.43
2023-01-06T21:05:56.071Z,4.22
2023-01-06T21:08:22.745Z,4.10
2023-01-06T21:10:49.407Z,4.00
2023-01-06T21:13:16.045Z,3.58
2023-01-06T21:15:42.683Z,3.70
2023-01-06T21:18:09.360Z,4.70
2023-01-06T21:20:35.947Z,4.68
2023-01-06T21:23:02.647Z,5.22
2023-01-06T21:25:29.272Z,4.15
2023-01-06T21:27:55.925Z,3.80
2023-01-06T21:30:22.824Z,4.00
2023-01-06T21:32:49.541Z,3.58
2023-01-06T21:35:16.385Z,4.53
2023-01-06T21:37:42.938Z,5.03
2023-01-06T21:40:10.344Z,4.35
2023-01-06T21:42:55.812Z,4.93
2023-01-06T21:45:22.438Z,4.88
2023-01-06T21:47:49.119Z,4.50
2023-01-06T21:50:15.825Z,4.72
2023-01-06T21:52:43.834Z,4.10
2023-01-06T21:55:11.487Z,4.47
2023-01-06T21:57:38.148Z,4.38
2023-01-06T22:00:06.435Z,4.35
2023-01-06T22:02:33.162Z,4.00
2023-01-06T22:04:59.936Z,3.45
2023-01-06T22:07:27.516Z,3.78
2023-01-06T22:09:54.915Z,3.35
2023-01-06T22:12:21.958Z,4.03
2023-01-06T22:14:51.744Z,4.07
2023-01-06T22:17:20.307Z,3.42
2023-01-06T22:19:48.566Z,3.35
2023-01-06T22:22:15.649Z,3.10
2023-01-06T22:24:42.502Z,3.50
2023-01-06T22:27:09.942Z,3.55
2023-01-06T22:29:36.570Z,3.70
2023-01-06T22:32:04.987Z,2.80
2023-01-06T22:34:31.953Z,3.38
2023-01-06T22:36:58.620Z,3.45
2023-01-06T22:39:25.359Z,3.55
2023-01-06T22:41:53.838Z,3.13
2023-01-06T22:44:20.741Z,3.47
2023-01-06T22:46:47.600Z,3.25
2023-01-06T22:49:15.059Z,3.38
2023-01-06T22:51:41.740Z,3.50
2023-01-06T22:54:08.395Z,2.85
2023-01-06T22:56:35.089Z,3.97
2023-01-06T22:59:01.895Z,3.47
2023-01-06T23:01:28.862Z,3.22
2023-01-06T23:03:55.543Z,4.57
2023-01-06T23:06:22.241Z,2.88
2023-01-06T23:08:59.573Z,3.38
2023-01-06T23:11:28.088Z,3.00
2023-01-06T23:13:56.870Z,2.88
2023-01-06T23:16:26.399Z,2.95
2023-01-06T23:18:53.971Z,3.13
2023-01-06T23:21:24.108Z,3.38
2023-01-06T23:23:51.958Z,3.38
2023-01-06T23:26:25.070Z,3.33
2023-01-06T23:28:52.851Z,3.17
2023-01-06T23:31:25.750Z,3.13
2023-01-06T23:33:57.811Z,3.35
2023-01-06T23:36:27.222Z,3.95
2023-01-06T23:38:55.757Z,3.60
2023-01-06T23:41:24.737Z,4.32
2023-01-06T23:43:51.988Z,3.67
2023-01-06T23:46:25.425Z,3.88
2023-01-06T23:48:53.283Z,4.15
2023-01-06T23:51:20.103Z,3.53
2023-01-06T23:53:46.882Z,3.65
2023-01-06T23:56:19.390Z,4.10
